Time;durP1;ratioP1;P1;durP2;ratioP2;P2;SDS_P1;SDS_P2;PMS_P1;PMS_P2;Temp;Humidity;BMP_temperature;BMP_pressure;BME280_temperature;BME280_humidity;BME280_pressure;Samples;Min_cycle;Max_cycle;Signal;HPM_P1;HPM_P2
2023/06/23 00:00:59;;;;;;;5.40;2.90;;;;;;;18.06;80.78;102071.59;4992312;28;96738;-27
2023/06/23 00:03:25;;;;;;;5.28;3.13;;;;;;;18.06;80.26;102069.72;4993772;28;96807;-27
2023/06/23 00:05:50;;;;;;;5.25;3.47;;;;;;;18.07;81.25;102068.75;4993647;28;99279;-26
2023/06/23 00:08:16;;;;;;;5.03;2.90;;;;;;;18.03;81.26;102061.72;4993917;28;97760;-26
2023/06/23 00:10:43;;;;;;;5.35;3.08;;;;;;;18.03;80.90;102059.84;4996716;28;96663;-26
2023/06/23 00:13:09;;;;;;;5.88;3.53;;;;;;;18.00;81.11;102054.59;4996054;28;96951;-27
2023/06/23 00:15:34;;;;;;;7.65;3.75;;;;;;;17.97;81.01;102045.72;4995516;28;101270;-27
2023/06/23 00:18:00;;;;;;;5.32;3.25;;;;;;;17.99;81.00;102049.22;4997161;28;99558;-27
2023/06/23 00:20:26;;;;;;;5.50;3.22;;;;;;;17.98;81.94;102047.47;4997446;28;96497;-26
2023/06/23 00:22:52;;;;;;;7.43;2.85;;;;;;;17.86;81.49;102041.03;4995875;28;96870;-28
2023/06/23 00:25:18;;;;;;;5.88;3.38;;;;;;;17.89;81.18;102048.16;4996440;28;97936;-26
2023/06/23 00:27:45;;;;;;;5.20;3.08;;;;;;;17.88;81.12;102040.94;4996898;28;97862;-27
2023/06/23 00:30:11;;;;;;;5.80;3.38;;;;;;;17.87;81.10;102037.28;4995920;28;96773;-27
2023/06/23 00:32:38;;;;;;;7.40;3.40;;;;;;;17.89;81.53;102045.41;4995318;28;96876;-26
2023/06/23 00:35:03;;;;;;;4.32;2.90;;;;;;;17.85;81.32;102049.34;4994854;28;100749;-27
2023/06/23 00:37:30;;;;;;;4.55;2.67;;;;;;;17.84;81.67;102059.47;4996711;28;99498;-27
2023/06/23 00:39:56;;;;;;;5.40;2.92;;;;;;;17.83;81.70;102063.19;4995657;28;96754;-28
2023/06/23 00:42:21;;;;;;;5.22;3.08;;;;;;;17.86;81.22;102068.44;4997213;28;96832;-26
2023/06/23 00:44:47;;;;;;;5.93;3.25;;;;;;;17.75;81.34;102068.31;4996825;28;97359;-26
2023/06/23 00:47:15;;;;;;;7.90;3.60;;;;;;;17.79;81.88;102073.47;4996632;28;97845;-26
2023/06/23 00:49:41;;;;;;;6.68;3.65;;;;;;;17.75;81.85;102071.91;4994833;28;96671;-26
2023/06/23 00:52:10;;;;;;;6.53;3.55;;;;;;;17.79;81.71;102089.03;4996839;28;96754;-27
2023/06/23 00:54:36;;;;;;;7.65;3.88;;;;;;;17.77;81.59;102094.63;4994926;28;100858;-26
2023/06/23 00:57:05;;;;;;;6.78;4.18;;;;;;;17.74;82.13;102092.09;4994929;28;101326;-27
2023/06/23 00:59:30;;;;;;;7.13;3.75;;;;;;;17.78;81.87;102088.16;4995160;28;96585;-26
2023/06/23 01:02:01;;;;;;;8.10;4.45;;;;;;;17.75;82.30;102092.97;4996908;28;96787;-26
2023/06/23 01:04:34;;;;;;;9.70;4.50;;;;;;;17.77;82.05;102091.88;4994845;28;100428;-27
2023/06/23 01:07:21;;;;;;;11.75;5.10;;;;;;;17.79;81.97;102098.13;4996696;28;98000;-27
2023/06/23 01:10:32;;;;;;;8.15;4.78;;;;;;;17.78;83.18;102112.84;4995202;28;96848;-26
2023/06/23 01:13:13;;;;;;;8.30;4.55;;;;;;;17.65;82.96;102109.22;4992733;28;96943;-26
2023/06/23 01:15:43;;;;;;;8.82;4.95;;;;;;;17.67;83.19;102112.72;4994278;28;101260;-26
2023/06/23 01:18:13;;;;;;;8.98;5.32;;;;;;;17.70;83.05;102117.09;4995904;28;98829;-26
2023/06/23 01:20:41;;;;;;;10.93;5.97;;;;;;;17.71;82.63;102127.97;4994330;28;96719;-26
2023/06/23 01:23:14;;;;;;;10.20;5.60;;;;;;;17.72;82.91;102112.38;4994894;28;96555;-26
2023/06/23 01:26:17;;;;;;;10.02;5.68;;;;;;;17.69;83.35;102109.88;4994444;28;101328;-28
2023/06/23 01:29:09;;;;;;;9.98;5.28;;;;;;;17.66;83.45;102116.44;4995865;28;97998;-26
2023/06/23 01:31:37;;;;;;;;;;;;;;;17.64;84.69;102118.44;4994883;28;96855;-27
2023/06/23 01:34:06;;;;;;;9.25;5.03;;;;;;;17.63;84.50;102116.66;4996427;28;96881;-26
2023/06/23 01:36:39;;;;;;;10.82;5.90;;;;;;;17.64;83.98;102115.69;4995358;28;99461;-27
2023/06/23 01:39:08;;;;;;;12.70;6.20;;;;;;;17.64;84.20;102118.44;4995659;28;97992;-26
2023/06/23 01:41:44;;;;;;;13.20;6.10;;;;;;;17.62;83.45;102112.16;4994143;28;96683;-27
2023/06/23 01:44:15;;;;;;;9.55;5.80;;;;;;;17.66;83.64;102121.03;4994678;28;96579;-26
2023/06/23 01:46:49;;;;;;;11.05;5.82;;;;;;;17.65;84.10;102128.38;4994346;28;101057;-29
2023/06/23 01:49:27;;;;;;;10.40;6.07;;;;;;;17.64;84.19;102118.44;4994148;28;101153;-27
2023/06/23 01:51:54;;;;;;;10.18;6.28;;;;;;;17.67;83.82;102134.63;4994599;28;96747;-26
2023/06/23 01:54:22;;;;;;;12.07;6.85;;;;;;;17.68;84.04;102138.25;4994364;28;96811;-27
2023/06/23 01:56:48;;;;;;;15.50;6.70;;;;;;;17.66;85.20;102146.56;4994020;28;101072;-27
2023/06/23 01:59:17;;;;;;;12.32;6.10;;;;;;;17.65;84.36;102153.06;4995879;28;97501;-28
2023/06/23 02:01:45;;;;;;;11.55;6.38;;;;;;;17.66;84.40;102153.91;4994350;28;96544;-27
2023/06/23 02:04:11;;;;;;;9.73;6.38;;;;;;;17.61;84.18;102152.41;4994153;28;96949;-26
2023/06/23 02:06:39;;;;;;;14.38;6.97;;;;;;;17.62;84.48;102153.28;4993318;28;100834;-26
2023/06/23 02:09:09;;;;;;;13.50;7.07;;;;;;;17.60;84.78;102164.34;4993827;28;100706;-26
2023/06/23 02:11:36;;;;;;;13.05;6.82;;;;;;;17.64;84.76;102173.22;4994165;28;96812;-28
2023/06/23 02:14:02;;;;;;;12.60;6.22;;;;;;;17.59;84.36;102170.81;4994196;28;96987;-26
2023/06/23 02:16:31;;;;;;;11.73;5.55;;;;;;;17.63;85.20;102180.56;4993718;28;100976;-26
2023/06/23 02:18:57;;;;;;;12.32;6.40;;;;;;;17.58;85.12;102180.00;4993636;28;101005;-28
2023/06/23 02:21:24;;;;;;;11.43;6.55;;;;;;;17.60;84.56;102196.34;4995574;28;96624;-27
2023/06/23 02:23:51;;;;;;;11.00;6.25;;;;;;;17.56;85.04;102198.41;4994356;28;96816;-26
2023/06/23 02:26:18;;;;;;;14.32;7.70;;;;;;;17.56;84.93;102198.41;4994962;28;98079;-26
2023/06/23 02:28:49;;;;;;;13.00;6.40;;;;;;;17.55;84.99;102201.28;4993598;28;99139;-27
2023/06/23 02:31:22;;;;;;;9.80;7.00;;;;;;;17.60;84.68;102204.56;4993224;28;96881;-27
2023/06/23 02:33:47;;;;;;;11.07;7.40;;;;;;;17.59;84.94;102203.69;4994257;28;96489;-26
2023/06/23 02:36:20;;;;;;;16.92;8.60;;;;;;;17.56;84.66;102192.06;4994646;28;97556;-27
2023/06/23 02:38:48;;;;;;;15.70;7.85;;;;;;;17.52;84.56;102182.28;4993716;28;101139;-26
2023/06/23 02:41:16;;;;;;;14.02;8.25;;;;;;;17.56;84.58;102194.78;4995531;28;96513;-27
2023/06/23 02:43:54;;;;;;;14.25;7.68;;;;;;;17.52;85.10;102188.66;4993521;28;96914;-27
2023/06/23 02:46:21;;;;;;;13.95;8.18;;;;;;;17.55;85.01;102193.06;4994884;28;97999;-26
2023/06/23 02:48:50;;;;;;;18.65;8.63;;;;;;;17.52;84.53;102199.63;4993767;28;101174;-27
2023/06/23 02:51:20;;;;;;;14.13;7.57;;;;;;;17.54;86.03;102194.91;4993620;28;96610;-27
2023/06/23 02:53:50;;;;;;;15.45;7.90;;;;;;;17.54;85.00;102192.19;4993647;28;96776;-26
2023/06/23 02:56:20;;;;;;;17.90;9.07;;;;;;;17.54;85.06;102194.03;4992544;28;100970;-26
2023/06/23 02:58:52;;;;;;;14.18;8.88;;;;;;;17.50;85.06;102178.81;4993375;28;100962;-27
2023/06/23 03:01:22;;;;;;;13.88;8.85;;;;;;;17.53;85.53;102195.88;4994661;28;96673;-27
2023/06/23 03:03:49;;;;;;;15.98;8.50;;;;;;;17.48;85.56;102186.25;4993327;28;96879;-28
2023/06/23 03:06:18;;;;;;;15.10;8.63;;;;;;;17.47;85.92;102204.56;4992930;28;101035;-26
2023/06/23 03:08:46;;;;;;;14.73;8.27;;;;;;;17.47;86.19;102214.59;4992854;28;101503;-26
2023/06/23 03:11:11;;;;;;;15.48;8.13;;;;;;;17.45;85.41;102211.09;4993429;28;96549;-27
2023/06/23 03:13:37;;;;;;;13.43;8.15;;;;;;;17.43;86.01;102208.47;4995276;28;96793;-27
2023/06/23 03:16:07;;;;;;;15.48;9.10;;;;;;;17.44;85.31;102204.75;4994540;28;97879;-26
2023/06/23 03:18:35;;;;;;;16.70;8.68;;;;;;;17.46;85.70;102216.47;4993041;28;100823;-27
2023/06/23 03:21:04;;;;;;;18.13;9.40;;;;;;;17.40;85.88;102209.56;4994166;28;96554;-27
2023/06/23 03:23:34;;;;;;;15.70;8.65;;;;;;;17.39;85.99;102218.75;4994290;28;96915;-27
2023/06/23 03:26:01;;;;;;;17.23;9.68;;;;;;;17.36;86.18;102218.97;4992827;28;100854;-27
2023/06/23 03:28:28;;;;;;;17.75;9.10;;;;;;;17.34;85.65;102215.44;4992857;28;100800;-26
2023/06/23 03:31:08;;;;;;;15.98;8.30;;;;;;;17.36;85.76;102220.84;4993003;28;96575;-26
2023/06/23 03:33:38;;;;;;;17.77;8.80;;;;;;;17.38;86.12;102227.97;4994736;28;96752;-26
2023/06/23 03:36:17;;;;;;;18.33;9.00;;;;;;;17.38;86.01;102235.31;4991889;28;103849;-26
2023/06/23 03:39:01;;;;;;;17.02;9.10;;;;;;;17.33;86.47;102230.16;4992955;28;100941;-27
2023/06/23 03:41:28;;;;;;;15.43;8.75;;;;;;;17.29;86.10;102234.06;4994646;28;96663;-27
2023/06/23 03:43:59;;;;;;;14.55;8.25;;;;;;;17.33;86.14;102240.22;4994614;28;96808;-26
2023/06/23 03:46:46;;;;;;;16.02;9.32;;;;;;;17.34;86.05;102240.09;4997103;28;97951;-27
2023/06/23 03:49:13;;;;;;;17.15;9.73;;;;;;;17.29;86.20;102239.53;4997514;28;98565;-27
2023/06/23 03:51:45;;;;;;;20.10;9.40;;;;;;;17.33;86.07;102249.31;4996522;28;96707;-26
2023/06/23 03:54:14;;;;;;;19.92;8.93;;;;;;;17.28;86.17;102240.53;4996354;28;96832;-26
2023/06/23 03:56:41;;;;;;;18.20;9.23;;;;;;;17.31;85.95;102250.41;4997067;28;98930;-26
2023/06/23 03:59:10;;;;;;;17.23;9.40;;;;;;;17.34;86.04;102253.81;4995856;28;101192;-28
2023/06/23 04:01:38;;;;;;;13.98;8.73;;;;;;;17.30;86.95;102245.91;4996128;28;96646;-26
2023/06/23 04:04:06;;;;;;;16.05;9.32;;;;;;;17.35;86.35;102260.16;4996618;28;96915;-27
2023/06/23 04:06:33;;;;;;;16.52;8.88;;;;;;;17.33;86.78;102263.00;4997101;28;98193;-27
2023/06/23 04:09:01;;;;;;;18.63;8.27;;;;;;;17.30;86.74;102257.72;4997084;28;97637;-27
2023/06/23 04:11:28;;;;;;;16.60;8.73;;;;;;;17.34;86.94;102270.22;4995556;28;96713;-26
2023/06/23 04:13:56;;;;;;;17.02;9.05;;;;;;;17.35;87.27;102268.38;4995882;28;97009;-26
2023/06/23 04:16:23;;;;;;;14.45;8.52;;;;;;;17.36;87.95;102271.00;4995641;28;100968;-26
2023/06/23 04:18:51;;;;;;;16.20;9.18;;;;;;;17.37;87.44;102271.88;4995554;28;101275;-27
2023/06/23 04:21:18;;;;;;;15.80;8.95;;;;;;;17.34;86.81;102272.97;4996972;28;96593;-26
2023/06/23 04:23:45;;;;;;;14.45;8.50;;;;;;;17.31;87.38;102269.56;4995724;28;96809;-27
2023/06/23 04:26:12;;;;;;;15.07;8.55;;;;;;;17.33;87.46;102273.09;4995528;28;101129;-27
2023/06/23 04:28:41;;;;;;;15.50;8.95;;;;;;;17.36;87.35;102272.88;4995905;28;100869;-26
2023/06/23 04:31:08;;;;;;;19.20;9.27;;;;;;;17.33;87.42;102273.97;4995537;28;97341;-26
2023/06/23 04:33:35;;;;;;;14.65;7.53;;;;;;;17.41;87.68;102284.41;4996864;28;96823;-27
2023/06/23 04:36:15;;;;;;;15.52;8.52;;;;;;;17.40;88.11;102288.13;4993944;28;100757;-26
2023/06/23 04:38:47;;;;;;;14.27;8.05;;;;;;;17.37;88.33;102280.09;4995383;28;101175;-27
2023/06/23 04:41:21;;;;;;;15.18;7.18;;;;;;;17.39;88.57;102292.72;4997193;28;96667;-26
2023/06/23 04:43:52;;;;;;;14.15;7.72;;;;;;;17.39;88.48;102289.97;4995642;28;96831;-27
2023/06/23 04:46:25;;;;;;;12.48;7.40;;;;;;;17.39;89.37;102287.22;4995121;28;101467;-27
2023/06/23 04:48:54;;;;;;;13.35;7.75;;;;;;;17.40;89.03;102290.88;4995111;28;100760;-26
2023/06/23 04:51:25;;;;;;;14.02;7.93;;;;;;;17.41;88.22;102292.63;4996776;28;96726;-27
2023/06/23 04:53:57;;;;;;;12.77;7.28;;;;;;;17.44;88.14;102291.53;4995924;28;96785;-27
2023/06/23 04:56:25;;;;;;;15.35;7.70;;;;;;;17.46;88.41;102290.44;4994116;28;98929;-26
2023/06/23 04:58:55;;;;;;;13.73;7.15;;;;;;;17.49;88.56;102301.19;4995002;28;101191;-26
2023/06/23 05:01:21;;;;;;;14.20;8.10;;;;;;;17.54;87.72;102293.56;4994611;28;96735;-27
2023/06/23 05:03:49;;;;;;;14.52;7.65;;;;;;;17.59;88.30;102301.44;4995427;28;96817;-26
2023/06/23 05:06:17;;;;;;;14.20;7.40;;;;;;;17.60;87.47;102297.72;4994726;28;100616;-26
2023/06/23 05:08:45;;;;;;;16.30;8.13;;;;;;;17.63;87.05;102283.81;4994928;28;101175;-27
2023/06/23 05:11:12;;;;;;;13.48;7.53;;;;;;;17.71;87.30;102300.63;4995132;28;96625;-28
2023/06/23 05:13:39;;;;;;;13.38;7.30;;;;;;;17.71;86.95;102300.63;4995052;28;96937;-27
2023/06/23 05:16:10;;;;;;;14.45;7.50;;;;;;;17.74;86.95;102315.97;4994523;28;101731;-27
2023/06/23 05:18:37;;;;;;;13.48;7.68;;;;;;;17.74;86.66;102315.97;4995218;28;100810;-27
2023/06/23 05:21:04;;;;;;;15.10;8.43;;;;;;;17.78;86.36;102315.66;4994859;28;97835;-27
2023/06/23 05:23:36;;;;;;;14.18;7.43;;;;;;;17.86;86.77;102317.91;4996364;28;96796;-26
2023/06/23 05:26:06;;;;;;;15.35;8.40;;;;;;;17.93;86.52;102329.34;4994143;28;100905;-26
2023/06/23 05:28:35;;;;;;;14.07;7.40;;;;;;;17.93;86.97;102327.47;4994313;28;101060;-27
2023/06/23 05:31:03;;;;;;;12.95;7.25;;;;;;;17.98;86.36;102330.75;4996150;28;96593;-26
2023/06/23 05:33:32;;;;;;;12.68;7.30;;;;;;;17.94;86.88;102320.13;4994927;28;96916;-27
2023/06/23 05:35:59;;;;;;;12.70;7.47;;;;;;;18.03;86.29;102328.56;4995054;28;99236;-27
2023/06/23 05:38:28;;;;;;;11.85;6.97;;;;;;;18.10;86.54;102344.63;4995791;28;97906;-27
2023/06/23 05:40:53;;;;;;;14.20;7.15;;;;;;;18.12;86.90;102337.16;4994538;28;96833;-27
2023/06/23 05:43:18;;;;;;;14.45;7.53;;;;;;;18.11;86.37;102333.50;4996495;28;97219;-26
2023/06/23 05:45:44;;;;;;;14.00;7.85;;;;;;;18.18;86.59;102334.84;4995514;28;97427;-26
2023/06/23 05:48:28;;;;;;;12.15;6.60;;;;;;;18.20;86.75;102329.25;4994197;28;101069;-26
2023/06/23 05:50:56;;;;;;;12.80;6.68;;;;;;;18.33;86.05;102346.63;4992268;28;96651;-27
2023/06/23 05:53:25;;;;;;;12.15;6.80;;;;;;;18.40;85.70;102347.94;4994234;28;96782;-26
2023/06/23 05:56:15;;;;;;;12.48;6.78;;;;;;;18.50;85.76;102348.19;4993990;28;101511;-27
2023/06/23 05:58:46;;;;;;;12.85;7.03;;;;;;;18.63;84.92;102348.16;4994116;28;101231;-26
2023/06/23 06:01:16;;;;;;;17.57;6.20;;;;;;;18.72;84.97;102349.38;4994599;28;96644;-27
2023/06/23 06:03:59;;;;;;;13.25;6.95;;;;;;;18.85;85.53;102358.50;4994039;28;96728;-26
2023/06/23 06:06:27;;;;;;;13.85;6.30;;;;;;;18.89;84.07;102347.19;4991874;28;100838;-27
2023/06/23 06:08:54;;;;;;;11.60;6.53;;;;;;;18.96;83.90;102350.38;4991356;28;101441;-32
2023/06/23 06:11:21;;;;;;;14.73;6.93;;;;;;;19.02;83.71;102349.94;4991757;28;97028;-27
2023/06/23 06:13:47;;;;;;;11.57;5.97;;;;;;;19.13;83.86;102353.75;4991758;28;97304;-29
2023/06/23 06:16:14;;;;;;;11.77;7.00;;;;;;;19.20;83.65;102352.31;4990656;28;101326;-27
2023/06/23 06:18:41;;;;;;;11.15;6.05;;;;;;;19.28;83.19;102358.09;4991198;28;100712;-29
2023/06/23 06:21:08;;;;;;;12.10;6.18;;;;;;;19.40;82.84;102359.03;4992646;28;97041;-26
2023/06/23 06:23:35;;;;;;;10.50;5.05;;;;;;;19.45;82.88;102357.72;4993995;28;96883;-27
2023/06/23 06:26:01;;;;;;;12.32;5.53;;;;;;;19.58;82.38;102365.03;4993463;28;100849;-26
2023/06/23 06:28:28;;;;;;;15.57;5.63;;;;;;;19.66;82.16;102366.22;4993538;28;101173;-26
2023/06/23 06:30:57;;;;;;;10.48;5.22;;;;;;;19.72;81.90;102359.41;4995142;28;96747;-26
2023/06/23 06:33:23;;;;;;;8.15;5.20;;;;;;;19.83;81.48;102370.47;4994106;28;96892;-26
2023/06/23 06:35:51;;;;;;;11.38;5.10;;;;;;;19.88;81.38;102371.00;4992873;28;101396;-26
2023/06/23 06:38:20;;;;;;;7.80;4.80;;;;;;;19.99;81.02;102369.28;4993432;28;101071;-26
2023/06/23 06:40:49;;;;;;;10.85;5.22;;;;;;;20.11;80.41;102379.31;4994414;28;96683;-27
2023/06/23 06:43:14;;;;;;;11.20;4.72;;;;;;;20.16;80.31;102374.34;4993601;28;96868;-26
2023/06/23 06:45:39;;;;;;;9.57;4.38;;;;;;;20.26;79.76;102389.16;4994789;28;98064;-26
2023/06/23 06:48:08;;;;;;;6.35;3.95;;;;;;;20.35;79.55;102387.53;4994730;28;97801;-26
2023/06/23 06:50:33;;;;;;;7.93;4.20;;;;;;;20.46;79.19;102381.19;4993657;28;96547;-26
2023/06/23 06:53:00;;;;;;;9.00;4.15;;;;;;;20.59;78.88;102382.00;4995187;28;96801;-26
2023/06/23 06:55:26;;;;;;;6.75;3.53;;;;;;;20.68;77.26;102391.41;4993208;28;101144;-27
2023/06/23 06:57:52;;;;;;;6.38;3.30;;;;;;;20.72;77.31;102387.41;4993353;28;101489;-27
2023/06/23 07:00:19;;;;;;;8.77;3.58;;;;;;;20.79;77.19;102373.03;4994900;28;96627;-27
2023/06/23 07:02:45;;;;;;;8.70;3.42;;;;;;;20.99;76.91;102384.28;4993389;28;96931;-26
2023/06/23 07:05:10;;;;;;;6.22;3.50;;;;;;;21.11;76.07;102383.28;4992558;28;100836;-26
2023/06/23 07:07:36;;;;;;;6.95;3.35;;;;;;;21.28;75.40;102386.53;4994363;28;99347;-27
2023/06/23 07:10:03;;;;;;;7.18;3.35;;;;;;;21.34;75.12;102391.56;4993321;28;96708;-27
2023/06/23 07:12:28;;;;;;;5.43;2.88;;;;;;;21.39;74.81;102403.09;4993070;28;96833;-27
2023/06/23 07:14:54;;;;;;;3.65;2.35;;;;;;;21.40;73.38;102402.09;4994479;28;97622;-27
2023/06/23 07:17:19;;;;;;;3.05;1.90;;;;;;;21.49;73.55;102409.59;4993064;28;99043;-26
2023/06/23 07:19:44;;;;;;;2.72;1.85;;;;;;;21.48;71.85;102405.09;4996247;28;96539;-26
2023/06/23 07:22:10;;;;;;;6.03;2.80;;;;;;;21.60;73.06;102415.09;4998711;28;96905;-27
2023/06/23 07:24:36;;;;;;;4.82;2.17;;;;;;;21.71;72.55;102407.81;4996541;28;101097;-26
2023/06/23 07:27:01;;;;;;;4.78;2.38;;;;;;;21.81;72.22;102406.91;4997266;28;99549;-27
2023/06/23 07:29:27;;;;;;;3.72;2.10;;;;;;;21.89;71.39;102411.78;4997725;28;96702;-27
2023/06/23 07:31:52;;;;;;;3.83;2.20;;;;;;;22.01;71.73;102412.63;4997891;28;96759;-27
2023/06/23 07:34:17;;;;;;;3.85;2.25;;;;;;;22.13;70.97;102417.09;4997432;28;98175;-27
2023/06/23 07:36:43;;;;;;;2.78;1.88;;;;;;;22.24;70.84;102413.44;4997557;28;97779;-26
2023/06/23 07:39:09;;;;;;;3.47;1.75;;;;;;;22.41;69.60;102421.13;4998139;28;96570;-28
2023/06/23 07:41:35;;;;;;;4.13;2.30;;;;;;;22.41;70.04;102421.13;4997816;28;96756;-27
2023/06/23 07:44:01;;;;;;;4.10;2.10;;;;;;;22.48;69.58;102429.78;4997292;28;99365;-27
2023/06/23 07:46:26;;;;;;;4.80;2.10;;;;;;;22.56;69.54;102432.72;4997703;28;99158;-27
2023/06/23 07:48:51;;;;;;;3.45;2.00;;;;;;;22.57;68.80;102430.81;4997760;28;96475;-26
2023/06/23 07:51:17;;;;;;;5.32;1.85;;;;;;;22.64;68.47;102429.28;4998012;28;96936;-28
2023/06/23 07:53:42;;;;;;;3.40;2.00;;;;;;;22.84;68.41;102428.41;4997187;28;97935;-26
2023/06/23 07:56:07;;;;;;;3.15;1.83;;;;;;;22.97;67.65;102424.53;4997454;28;97746;-27
2023/06/23 07:58:33;;;;;;;4.07;2.15;;;;;;;23.02;67.43;102436.09;4997515;28;96555;-27
2023/06/23 08:00:58;;;;;;;4.10;2.20;;;;;;;23.09;67.45;102420.72;4997906;28;96838;-27
2023/06/23 08:03:23;;;;;;;4.15;2.10;;;;;;;23.13;66.82;102424.97;4997354;28;97272;-26
2023/06/23 08:05:49;;;;;;;3.08;1.83;;;;;;;23.21;65.95;102419.59;4997212;28;97786;-27
2023/06/23 08:08:14;;;;;;;4.30;2.00;;;;;;;23.37;66.86;102421.84;4997483;28;96591;-26
2023/06/23 08:10:40;;;;;;;3.55;2.20;;;;;;;23.51;65.82;102420.59;4997901;28;96809;-27
2023/06/23 08:13:05;;;;;;;2.95;1.75;;;;;;;23.51;64.93;102424.22;4997004;28;98024;-27
2023/06/23 08:15:30;;;;;;;7.30;1.95;;;;;;;23.62;65.84;102430.66;4996969;28;99145;-27
2023/06/23 08:17:56;;;;;;;4.88;1.52;;;;;;;23.63;64.78;102421.34;4996660;28;96742;-27
2023/06/23 08:20:22;;;;;;;3.38;2.00;;;;;;;23.73;64.29;102427.78;4997500;28;96812;-28
2023/06/23 08:22:47;;;;;;;4.20;1.98;;;;;;;23.80;64.60;102428.13;4997016;28;97405;-27
2023/06/23 08:25:14;;;;;;;2.83;1.73;;;;;;;23.85;62.53;102431.34;4997002;28;97352;-30
2023/06/23 08:27:40;;;;;;;2.92;1.75;;;;;;;23.94;63.49;102425.81;4996902;28;96712;-27
2023/06/23 08:30:05;;;;;;;4.13;2.00;;;;;;;24.06;62.28;102429.31;4997071;28;96871;-27
2023/06/23 08:32:31;;;;;;;3.60;2.20;;;;;;;24.18;62.86;102438.38;4995238;28;103031;-26
2023/06/23 08:34:56;;;;;;;3.47;2.13;;;;;;;24.22;62.13;102439.84;4996207;28;99314;-27
2023/06/23 08:37:22;;;;;;;4.40;2.20;;;;;;;24.27;62.37;102436.63;4997095;28;96656;-26
2023/06/23 08:39:48;;;;;;;3.75;2.45;;;;;;;24.34;62.04;102446.13;4997146;28;96859;-26
2023/06/23 08:42:14;;;;;;;3.33;2.03;;;;;;;24.47;61.45;102448.59;4996172;28;97924;-27
2023/06/23 08:44:43;;;;;;;4.15;2.25;;;;;;;24.54;61.75;102447.88;4995264;28;100952;-27
2023/06/23 08:47:14;;;;;;;4.20;2.47;;;;;;;24.61;61.68;102456.47;4995380;28;96651;-27
2023/06/23 08:49:41;;;;;;;4.63;2.58;;;;;;;24.68;61.30;102451.22;4995589;28;97158;-26
2023/06/23 08:52:08;;;;;;;5.30;2.72;;;;;;;24.70;60.56;102450.03;4995065;28;100861;-27
2023/06/23 08:54:35;;;;;;;3.80;2.33;;;;;;;24.75;62.01;102452.38;4996148;28;99277;-27
2023/06/23 08:57:01;;;;;;;4.45;2.63;;;;;;;24.89;61.64;102448.28;4995421;28;96723;-26
2023/06/23 08:59:27;;;;;;;5.20;2.35;;;;;;;25.01;60.14;102456.25;4995623;28;96865;-27
2023/06/23 09:01:52;;;;;;;4.30;2.50;;;;;;;25.09;60.31;102461.03;4996426;28;97472;-26
2023/06/23 09:04:19;;;;;;;3.80;2.50;;;;;;;25.10;59.60;102453.59;4996199;28;99227;-27
2023/06/23 09:06:45;;;;;;;4.55;2.45;;;;;;;25.18;59.98;102462.06;4996125;28;96605;-26
2023/06/23 09:09:11;;;;;;;4.50;2.58;;;;;;;25.26;60.33;102467.72;4996237;28;97001;-27
2023/06/23 09:11:37;;;;;;;3.47;2.15;;;;;;;25.26;59.79;102467.72;4996291;28;98016;-26
2023/06/23 09:14:06;;;;;;;4.57;2.58;;;;;;;25.34;59.63;102473.41;4995880;28;99288;-26
2023/06/23 09:16:32;;;;;;;5.90;2.33;;;;;;;25.41;59.13;102455.13;4995074;28;96858;-26
2023/06/23 09:19:00;;;;;;;5.75;2.55;;;;;;;25.56;59.66;102465.72;4996553;28;96783;-28
2023/06/23 09:21:25;;;;;;;4.72;2.35;;;;;;;25.60;59.01;102472.72;4994506;28;101281;-26
2023/06/23 09:24:02;;;;;;;5.50;2.88;;;;;;;25.69;58.30;102473.69;4996531;28;97232;-27
2023/06/23 09:26:27;;;;;;;4.22;2.65;;;;;;;25.71;59.14;102461.38;4994925;28;96877;-27
2023/06/23 09:29:14;;;;;;;4.85;2.47;;;;;;;25.80;57.56;102468.78;4996482;28;96858;-26
2023/06/23 09:31:40;;;;;;;4.53;2.45;;;;;;;25.91;58.03;102473.31;4993986;28;101063;-26
2023/06/23 09:34:05;;;;;;;3.30;2.22;;;;;;;25.92;57.99;102468.63;4994134;28;100876;-28
2023/06/23 09:36:36;;;;;;;5.50;1.92;;;;;;;26.01;55.81;102476.88;4995720;28;96754;-26
2023/06/23 09:39:01;;;;;;;2.78;1.80;;;;;;;26.01;56.43;102476.88;4996076;28;96907;-27
2023/06/23 09:41:31;;;;;;;4.57;2.05;;;;;;;26.07;54.47;102469.81;4994116;28;101310;-26
2023/06/23 09:43:57;;;;;;;3.30;1.92;;;;;;;26.18;54.78;102474.28;4993963;28;101062;-27
2023/06/23 09:46:23;;;;;;;2.55;1.80;;;;;;;26.32;53.50;102468.19;4995705;28;96569;-26
2023/06/23 09:48:49;;;;;;;2.05;1.13;;;;;;;26.42;53.74;102466.19;4996360;28;96884;-27
2023/06/23 09:51:20;;;;;;;2.85;1.50;;;;;;;26.52;53.98;102470.78;4995614;28;97411;-27
2023/06/23 09:53:46;;;;;;;2.30;1.42;;;;;;;26.53;52.45;102467.88;4994175;28;101029;-26
2023/06/23 09:56:17;;;;;;;3.45;1.38;;;;;;;26.57;51.63;102483.19;4993988;28;96746;-26
2023/06/23 09:58:43;;;;;;;;;;;;;;;26.69;49.92;102486.59;4996029;28;96819;-27
2023/06/23 10:01:11;;;;;;;2.78;1.45;;;;;;;26.72;51.24;102496.53;4995259;28;99286;-26
2023/06/23 10:03:53;;;;;;;2.25;1.30;;;;;;;26.73;51.46;102479.69;4993927;28;101224;-26
2023/06/23 10:06:36;;;;;;;2.70;1.58;;;;;;;26.88;49.48;102488.31;4994312;28;96561;-26
2023/06/23 10:09:10;;;;;;;1.30;1.10;;;;;;;26.91;50.57;102474.13;4995671;28;96710;-26
2023/06/23 10:11:36;;;;;;;2.88;1.50;;;;;;;26.95;49.66;102478.28;4993707;28;101272;-26
2023/06/23 10:14:07;;;;;;;3.22;2.03;;;;;;;26.96;49.15;102485.63;4995497;28;99733;-26
2023/06/23 10:16:36;;;;;;;3.83;1.35;;;;;;;27.04;50.48;102480.09;4994166;28;96593;-26
2023/06/23 10:19:03;;;;;;;3.70;1.70;;;;;;;27.04;49.83;102470.88;4994099;28;96876;-27
2023/06/23 10:21:30;;;;;;;4.45;1.40;;;;;;;27.21;47.62;102474.69;4993145;28;103139;-26
2023/06/23 10:24:02;;;;;;;2.70;1.20;;;;;;;27.26;48.51;102469.50;4994927;28;99838;-26
2023/06/23 10:26:31;;;;;;;2.05;1.35;;;;;;;27.33;49.86;102474.22;4995310;28;96671;-26
2023/06/23 10:29:01;;;;;;;4.07;1.70;;;;;;;27.38;49.19;102475.66;4993953;28;96552;-26
2023/06/23 10:31:31;;;;;;;1.90;1.23;;;;;;;27.32;48.39;102471.63;4994932;28;97414;-26
2023/06/23 10:34:01;;;;;;;3.33;1.35;;;;;;;27.45;47.43;102483.16;4994579;28;99400;-26
2023/06/23 10:36:30;;;;;;;2.78;1.58;;;;;;;27.43;46.73;102484.38;4994627;28;96783;-26
2023/06/23 10:39:00;;;;;;;2.83;1.50;;;;;;;27.39;48.46;102481.06;4993969;28;97456;-27
2023/06/23 10:41:26;;;;;;;3.42;1.63;;;;;;;27.53;48.88;102483.22;4993502;28;101569;-27
2023/06/23 10:43:55;;;;;;;2.47;1.38;;;;;;;27.65;47.27;102482.91;4994929;28;97350;-27
2023/06/23 10:46:22;;;;;;;2.58;1.33;;;;;;;27.75;47.08;102492.00;4994468;28;96650;-27
2023/06/23 10:48:48;;;;;;;3.88;1.70;;;;;;;27.79;47.01;102487.84;4993521;28;96906;-26
2023/06/23 10:51:14;;;;;;;4.65;1.70;;;;;;;27.88;47.56;102497.13;4993297;28;101242;-27
2023/06/23 10:54:05;;;;;;;6.05;1.60;;;;;;;28.00;46.03;102490.19;4993641;28;97284;-26
2023/06/23 10:56:35;;;;;;;2.58;1.63;;;;;;;28.03;46.00;102503.81;4993481;28;96604;-26
2023/06/23 10:59:17;;;;;;;3.88;1.33;;;;;;;28.13;44.22;102496.19;4993520;28;96849;-26
2023/06/23 11:02:01;;;;;;;2.95;1.88;;;;;;;28.15;44.96;102502.44;4993081;28;101133;-27
2023/06/23 11:04:29;;;;;;;2.40;1.27;;;;;;;28.15;47.26;102498.78;4995092;28;97830;-26
2023/06/23 11:07:12;;;;;;;3.03;1.80;;;;;;;28.10;46.17;102495.63;4993452;28;96751;-27
2023/06/23 11:09:55;;;;;;;2.15;1.60;;;;;;;28.16;45.76;102498.59;4994758;28;96688;-26
2023/06/23 11:12:38;;;;;;;4.47;1.67;;;;;;;28.24;46.05;102503.31;4993988;28;98137;-26
2023/06/23 11:15:13;;;;;;;5.32;1.92;;;;;;;28.00;44.80;102489.34;4994497;28;97390;-26
2023/06/23 11:17:58;;;;;;;2.53;1.63;;;;;;;27.94;44.35;102499.25;4993280;28;96612;-28
2023/06/23 11:20:24;;;;;;;2.42;1.60;;;;;;;27.93;47.71;102497.50;4993168;28;96895;-26
2023/06/23 11:23:06;;;;;;;3.15;1.90;;;;;;;28.01;45.35;102485.50;4994518;28;98035;-26
2023/06/23 11:25:46;;;;;;;2.25;1.65;;;;;;;28.08;45.27;102484.66;4994175;28;99651;-26
2023/06/23 11:28:29;;;;;;;3.00;1.80;;;;;;;28.25;44.68;102505.09;4994524;28;96751;-26